sensor_id;sensor_type;location;lat;lon;timestamp;temperature;humidity
20740;DHT22;10530;49.968;19.844;2023-09-19T00:00:22;16.70;99.90
20740;DHT22;10530;49.968;19.844;2023-09-19T00:05:29;16.70;99.90
20740;DHT22;10530;49.968;19.844;2023-09-19T00:10:33;16.70;99.90
20740;DHT22;10530;49.968;19.844;2023-09-19T00:15:41;16.80;99.90
20740;DHT22;10530;49.968;19.844;2023-09-19T00:20:44;16.80;99.90
20740;DHT22;10530;49.968;19.844;2023-09-19T00:25:52;16.90;99.90
20740;DHT22;10530;49.968;19.844;2023-09-19T00:30:55;17.00;99.90
20740;DHT22;10530;49.968;19.844;2023-09-19T00:35:58;17.00;99.90
20740;DHT22;10530;49.968;19.844;2023-09-19T00:41:00;17.00;99.90
20740;DHT22;10530;49.968;19.844;2023-09-19T00:46:03;16.80;99.90
20740;DHT22;10530;49.968;19.844;2023-09-19T00:51:09;16.90;99.90
20740;DHT22;10530;49.968;19.844;2023-09-19T00:56:13;16.90;99.90
20740;DHT22;10530;49.968;19.844;2023-09-19T01:01:17;17.00;99.90
20740;DHT22;10530;49.968;19.844;2023-09-19T01:06:21;17.30;99.90
20740;DHT22;10530;49.968;19.844;2023-09-19T01:11:38;17.40;99.90
20740;DHT22;10530;49.968;19.844;2023-09-19T01:17:20;17.50;99.90
20740;DHT22;10530;49.968;19.844;2023-09-19T01:33:05;17.50;99.90
20740;DHT22;10530;49.968;19.844;2023-09-19T01:38:09;17.50;99.90
20740;DHT22;10530;49.968;19.844;2023-09-19T01:43:31;17.50;99.90
20740;DHT22;10530;49.968;19.844;2023-09-19T01:53:56;17.50;99.90
20740;DHT22;10530;49.968;19.844;2023-09-19T01:59:09;17.50;99.90
20740;DHT22;10530;49.968;19.844;2023-09-19T02:04:13;17.60;99.90
20740;DHT22;10530;49.968;19.844;2023-09-19T02:09:17;17.70;99.90
20740;DHT22;10530;49.968;19.844;2023-09-19T02:14:19;17.80;99.90
20740;DHT22;10530;49.968;19.844;2023-09-19T02:19:22;17.80;99.90
20740;DHT22;10530;49.968;19.844;2023-09-19T02:24:25;17.90;99.90
20740;DHT22;10530;49.968;19.844;2023-09-19T02:29:29;17.80;99.90
20740;DHT22;10530;49.968;19.844;2023-09-19T02:34:32;17.80;99.90
20740;DHT22;10530;49.968;19.844;2023-09-19T02:39:35;17.90;99.90
20740;DHT22;10530;49.968;19.844;2023-09-19T02:44:37;17.90;99.90
20740;DHT22;10530;49.968;19.844;2023-09-19T02:49:40;18.00;99.90
20740;DHT22;10530;49.968;19.844;2023-09-19T02:54:45;18.10;99.90
20740;DHT22;10530;49.968;19.844;2023-09-19T02:59:48;18.10;99.90
20740;DHT22;10530;49.968;19.844;2023-09-19T03:04:51;18.10;99.90
20740;DHT22;10530;49.968;19.844;2023-09-19T03:09:54;18.10;99.90
20740;DHT22;10530;49.968;19.844;2023-09-19T03:14:57;18.10;99.90
20740;DHT22;10530;49.968;19.844;2023-09-19T03:20:03;18.10;99.90
20740;DHT22;10530;49.968;19.844;2023-09-19T03:25:11;18.00;99.90
20740;DHT22;10530;49.968;19.844;2023-09-19T03:30:16;17.90;99.90
20740;DHT22;10530;49.968;19.844;2023-09-19T03:35:19;18.00;99.90
20740;DHT22;10530;49.968;19.844;2023-09-19T03:40:23;17.90;99.90
20740;DHT22;10530;49.968;19.844;2023-09-19T03:45:26;17.90;99.90
20740;DHT22;10530;49.968;19.844;2023-09-19T03:50:30;18.00;99.90
20740;DHT22;10530;49.968;19.844;2023-09-19T03:55:33;18.00;99.90
20740;DHT22;10530;49.968;19.844;2023-09-19T04:00:41;18.00;99.90
20740;DHT22;10530;49.968;19.844;2023-09-19T04:05:44;18.00;99.90
20740;DHT22;10530;49.968;19.844;2023-09-19T04:10:47;18.00;99.90
20740;DHT22;10530;49.968;19.844;2023-09-19T04:15:51;18.00;99.90
20740;DHT22;10530;49.968;19.844;2023-09-19T04:20:54;17.90;99.90
20740;DHT22;10530;49.968;19.844;2023-09-19T04:25:58;18.00;99.90
20740;DHT22;10530;49.968;19.844;2023-09-19T04:31:02;18.10;99.90
20740;DHT22;10530;49.968;19.844;2023-09-19T04:36:04;18.00;99.90
20740;DHT22;10530;49.968;19.844;2023-09-19T04:41:29;17.90;99.90
20740;DHT22;10530;49.968;19.844;2023-09-19T04:46:32;17.90;99.90
20740;DHT22;10530;49.968;19.844;2023-09-19T04:51:35;17.90;99.90
20740;DHT22;10530;49.968;19.844;2023-09-19T04:56:39;17.90;99.90
20740;DHT22;10530;49.968;19.844;2023-09-19T05:01:42;17.90;99.90
20740;DHT22;10530;49.968;19.844;2023-09-19T05:06:45;17.90;99.90
20740;DHT22;10530;49.968;19.844;2023-09-19T05:11:48;18.00;99.90
20740;DHT22;10530;49.968;19.844;2023-09-19T05:16:51;18.00;99.90
20740;DHT22;10530;49.968;19.844;2023-09-19T05:21:54;18.10;99.90
20740;DHT22;10530;49.968;19.844;2023-09-19T05:26:57;18.10;99.90
20740;DHT22;10530;49.968;19.844;2023-09-19T05:32:00;18.10;99.90
20740;DHT22;10530;49.968;19.844;2023-09-19T05:37:03;18.00;99.90
20740;DHT22;10530;49.968;19.844;2023-09-19T05:42:05;18.00;99.90
20740;DHT22;10530;49.968;19.844;2023-09-19T05:47:10;17.90;99.90
20740;DHT22;10530;49.968;19.844;2023-09-19T05:52:13;17.80;99.90
20740;DHT22;10530;49.968;19.844;2023-09-19T05:57:15;17.90;99.90
20740;DHT22;10530;49.968;19.844;2023-09-19T06:02:19;17.90;99.90
20740;DHT22;10530;49.968;19.844;2023-09-19T06:07:22;17.90;99.90
20740;DHT22;10530;49.968;19.844;2023-09-19T06:12:28;17.90;99.90
20740;DHT22;10530;49.968;19.844;2023-09-19T06:17:32;18.00;99.90
20740;DHT22;10530;49.968;19.844;2023-09-19T06:22:35;17.90;99.90
20740;DHT22;10530;49.968;19.844;2023-09-19T06:27:41;17.90;99.90
20740;DHT22;10530;49.968;19.844;2023-09-19T06:32:45;17.90;99.90
20740;DHT22;10530;49.968;19.844;2023-09-19T06:37:48;18.00;99.90
20740;DHT22;10530;49.968;19.844;2023-09-19T06:42:52;17.90;99.90
20740;DHT22;10530;49.968;19.844;2023-09-19T06:47:56;17.90;99.90
20740;DHT22;10530;49.968;19.844;2023-09-19T06:53:01;17.90;99.90
20740;DHT22;10530;49.968;19.844;2023-09-19T06:58:04;17.90;99.90
20740;DHT22;10530;49.968;19.844;2023-09-19T07:03:09;17.80;99.90
20740;DHT22;10530;49.968;19.844;2023-09-19T07:08:14;17.90;99.90
20740;DHT22;10530;49.968;19.844;2023-09-19T07:13:17;17.90;99.90
20740;DHT22;10530;49.968;19.844;2023-09-19T07:18:20;18.00;99.90
20740;DHT22;10530;49.968;19.844;2023-09-19T07:23:24;18.00;99.90
20740;DHT22;10530;49.968;19.844;2023-09-19T07:28:28;18.10;99.90
20740;DHT22;10530;49.968;19.844;2023-09-19T07:33:31;18.10;99.90
20740;DHT22;10530;49.968;19.844;2023-09-19T07:38:33;18.00;99.90
20740;DHT22;10530;49.968;19.844;2023-09-19T07:43:38;17.90;99.90
20740;DHT22;10530;49.968;19.844;2023-09-19T07:48:50;17.90;99.90
20740;DHT22;10530;49.968;19.844;2023-09-19T07:53:53;17.80;99.90
20740;DHT22;10530;49.968;19.844;2023-09-19T07:58:57;17.80;99.90
20740;DHT22;10530;49.968;19.844;2023-09-19T08:04:02;17.70;99.90
20740;DHT22;10530;49.968;19.844;2023-09-19T08:09:05;17.60;99.90
20740;DHT22;10530;49.968;19.844;2023-09-19T08:14:11;17.50;99.90
20740;DHT22;10530;49.968;19.844;2023-09-19T08:19:16;17.40;99.90
20740;DHT22;10530;49.968;19.844;2023-09-19T08:24:19;17.30;99.90
20740;DHT22;10530;49.968;19.844;2023-09-19T08:29:23;17.40;99.90
20740;DHT22;10530;49.968;19.844;2023-09-19T08:34:32;17.30;99.90
20740;DHT22;10530;49.968;19.844;2023-09-19T08:39:36;17.30;99.90
20740;DHT22;10530;49.968;19.844;2023-09-19T08:44:42;17.30;99.90
20740;DHT22;10530;49.968;19.844;2023-09-19T08:54:52;17.40;99.90
20740;DHT22;10530;49.968;19.844;2023-09-19T08:59:57;17.50;99.90
20740;DHT22;10530;49.968;19.844;2023-09-19T09:05:04;17.50;99.90
20740;DHT22;10530;49.968;19.844;2023-09-19T09:10:08;17.60;99.90
20740;DHT22;10530;49.968;19.844;2023-09-19T09:15:12;17.60;99.90
20740;DHT22;10530;49.968;19.844;2023-09-19T09:20:19;17.60;99.90
20740;DHT22;10530;49.968;19.844;2023-09-19T09:25:23;17.60;99.90
20740;DHT22;10530;49.968;19.844;2023-09-19T09:30:36;17.70;99.90
20740;DHT22;10530;49.968;19.844;2023-09-19T09:35:51;17.60;99.90
20740;DHT22;10530;49.968;19.844;2023-09-19T09:41:00;17.70;99.90
20740;DHT22;10530;49.968;19.844;2023-09-19T09:46:14;17.80;99.90
20740;DHT22;10530;49.968;19.844;2023-09-19T09:52:03;17.80;99.90
20740;DHT22;10530;49.968;19.844;2023-09-19T09:57:22;17.80;99.90
20740;DHT22;10530;49.968;19.844;2023-09-19T10:02:30;17.80;99.90
20740;DHT22;10530;49.968;19.844;2023-09-19T10:07:40;18.00;99.90
20740;DHT22;10530;49.968;19.844;2023-09-19T10:12:47;18.00;99.90
20740;DHT22;10530;49.968;19.844;2023-09-19T10:17:52;18.10;99.90
20740;DHT22;10530;49.968;19.844;2023-09-19T10:23:06;18.00;99.90
20740;DHT22;10530;49.968;19.844;2023-09-19T10:28:15;18.10;99.90
20740;DHT22;10530;49.968;19.844;2023-09-19T10:33:20;18.20;99.90
20740;DHT22;10530;49.968;19.844;2023-09-19T10:38:26;18.20;99.90
20740;DHT22;10530;49.968;19.844;2023-09-19T10:43:32;18.30;99.90
20740;DHT22;10530;49.968;19.844;2023-09-19T10:48:41;18.30;99.90
20740;DHT22;10530;49.968;19.844;2023-09-19T10:54:00;18.30;99.90
20740;DHT22;10530;49.968;19.844;2023-09-19T10:59:19;18.30;99.90
20740;DHT22;10530;49.968;19.844;2023-09-19T11:04:31;18.40;99.90
20740;DHT22;10530;49.968;19.844;2023-09-19T11:09:53;18.40;99.90
20740;DHT22;10530;49.968;19.844;2023-09-19T11:14:56;18.30;99.90
20740;DHT22;10530;49.968;19.844;2023-09-19T11:30:37;18.40;99.90
20740;DHT22;10530;49.968;19.844;2023-09-19T11:36:13;18.30;99.90
20740;DHT22;10530;49.968;19.844;2023-09-19T11:46:34;18.20;99.90
20740;DHT22;10530;49.968;19.844;2023-09-19T11:51:41;18.10;99.90
20740;DHT22;10530;49.968;19.844;2023-09-19T11:56:49;18.00;99.90
20740;DHT22;10530;49.968;19.844;2023-09-19T12:02:01;18.00;99.90
20740;DHT22;10530;49.968;19.844;2023-09-19T12:07:14;18.00;99.90
20740;DHT22;10530;49.968;19.844;2023-09-19T12:12:25;18.00;99.90
20740;DHT22;10530;49.968;19.844;2023-09-19T12:17:40;18.10;99.90
20740;DHT22;10530;49.968;19.844;2023-09-19T12:22:47;18.20;99.90
20740;DHT22;10530;49.968;19.844;2023-09-19T12:27:52;18.30;99.90
20740;DHT22;10530;49.968;19.844;2023-09-19T12:32:56;18.40;99.90
20740;DHT22;10530;49.968;19.844;2023-09-19T12:38:02;18.50;99.90
20740;DHT22;10530;49.968;19.844;2023-09-19T12:43:07;18.60;99.90
20740;DHT22;10530;49.968;19.844;2023-09-19T12:48:21;18.60;99.90
20740;DHT22;10530;49.968;19.844;2023-09-19T12:53:45;18.50;99.90
20740;DHT22;10530;49.968;19.844;2023-09-19T12:58:52;18.70;99.90
20740;DHT22;10530;49.968;19.844;2023-09-19T13:04:23;18.80;99.90
20740;DHT22;10530;49.968;19.844;2023-09-19T13:09:31;18.80;99.90
20740;DHT22;10530;49.968;19.844;2023-09-19T13:14:38;18.80;99.90
20740;DHT22;10530;49.968;19.844;2023-09-19T13:19:44;18.80;99.90
20740;DHT22;10530;49.968;19.844;2023-09-19T13:25:01;18.80;99.90
20740;DHT22;10530;49.968;19.844;2023-09-19T13:30:04;18.80;99.90
20740;DHT22;10530;49.968;19.844;2023-09-19T13:35:07;18.90;99.90
20740;DHT22;10530;49.968;19.844;2023-09-19T13:40:15;19.10;99.90
20740;DHT22;10530;49.968;19.844;2023-09-19T13:45:18;19.30;99.90
20740;DHT22;10530;49.968;19.844;2023-09-19T13:50:24;19.50;99.90
20740;DHT22;10530;49.968;19.844;2023-09-19T13:55:29;19.80;99.90
20740;DHT22;10530;49.968;19.844;2023-09-19T14:00:32;20.20;99.90
20740;DHT22;10530;49.968;19.844;2023-09-19T14:05:36;20.40;99.90
20740;DHT22;10530;49.968;19.844;2023-09-19T14:10:40;20.60;99.90
20740;DHT22;10530;49.968;19.844;2023-09-19T14:15:43;21.30;99.90
20740;DHT22;10530;49.968;19.844;2023-09-19T14:20:46;21.20;99.90
20740;DHT22;10530;49.968;19.844;2023-09-19T14:25:50;20.60;99.90
20740;DHT22;10530;49.968;19.844;2023-09-19T14:30:54;20.10;99.90
20740;DHT22;10530;49.968;19.844;2023-09-19T14:35:57;20.00;99.90
20740;DHT22;10530;49.968;19.844;2023-09-19T14:41:06;20.00;99.90
20740;DHT22;10530;49.968;19.844;2023-09-19T14:46:09;20.10;99.90
20740;DHT22;10530;49.968;19.844;2023-09-19T14:51:14;20.30;99.90
20740;DHT22;10530;49.968;19.844;2023-09-19T14:56:17;20.50;99.90
20740;DHT22;10530;49.968;19.844;2023-09-19T15:01:22;20.80;99.90
20740;DHT22;10530;49.968;19.844;2023-09-19T15:06:25;20.90;99.90
20740;DHT22;10530;49.968;19.844;2023-09-19T15:11:29;20.80;99.90
20740;DHT22;10530;49.968;19.844;2023-09-19T15:16:31;20.80;99.90
20740;DHT22;10530;49.968;19.844;2023-09-19T15:21:35;20.90;99.90
20740;DHT22;10530;49.968;19.844;2023-09-19T15:26:40;20.70;99.90
20740;DHT22;10530;49.968;19.844;2023-09-19T15:31:43;20.50;99.90
20740;DHT22;10530;49.968;19.844;2023-09-19T15:36:45;20.30;99.90
20740;DHT22;10530;49.968;19.844;2023-09-19T15:41:48;20.10;99.90
20740;DHT22;10530;49.968;19.844;2023-09-19T15:46:53;20.10;99.90
20740;DHT22;10530;49.968;19.844;2023-09-19T15:51:56;19.90;99.90
20740;DHT22;10530;49.968;19.844;2023-09-19T15:56:59;19.80;99.90
20740;DHT22;10530;49.968;19.844;2023-09-19T16:02:02;19.70;99.90
20740;DHT22;10530;49.968;19.844;2023-09-19T16:07:05;19.50;99.90
20740;DHT22;10530;49.968;19.844;2023-09-19T16:12:09;19.50;99.90
20740;DHT22;10530;49.968;19.844;2023-09-19T16:17:13;19.40;99.90
20740;DHT22;10530;49.968;19.844;2023-09-19T16:22:16;19.30;99.90
20740;DHT22;10530;49.968;19.844;2023-09-19T16:27:19;19.30;99.90
20740;DHT22;10530;49.968;19.844;2023-09-19T16:32:23;19.30;99.90
20740;DHT22;10530;49.968;19.844;2023-09-19T16:37:26;19.20;99.90
20740;DHT22;10530;49.968;19.844;2023-09-19T16:42:29;19.10;99.90
20740;DHT22;10530;49.968;19.844;2023-09-19T16:47:40;19.00;99.90
20740;DHT22;10530;49.968;19.844;2023-09-19T16:52:42;18.90;99.90
20740;DHT22;10530;49.968;19.844;2023-09-19T16:57:46;18.90;99.90
20740;DHT22;10530;49.968;19.844;2023-09-19T17:02:49;18.80;99.90
20740;DHT22;10530;49.968;19.844;2023-09-19T17:07:55;18.80;99.90
20740;DHT22;10530;49.968;19.844;2023-09-19T17:12:58;18.70;99.90
20740;DHT22;10530;49.968;19.844;2023-09-19T17:18:01;18.60;99.90
20740;DHT22;10530;49.968;19.844;2023-09-19T17:23:03;18.40;99.90
20740;DHT22;10530;49.968;19.844;2023-09-19T17:28:07;18.40;99.90
20740;DHT22;10530;49.968;19.844;2023-09-19T17:33:09;18.30;99.90
20740;DHT22;10530;49.968;19.844;2023-09-19T17:38:12;18.20;99.90
20740;DHT22;10530;49.968;19.844;2023-09-19T17:43:15;18.10;99.90
20740;DHT22;10530;49.968;19.844;2023-09-19T17:48:17;17.90;99.90
20740;DHT22;10530;49.968;19.844;2023-09-19T17:53:20;17.70;99.90
20740;DHT22;10530;49.968;19.844;2023-09-19T17:58:24;17.70;99.90
20740;DHT22;10530;49.968;19.844;2023-09-19T18:03:27;17.50;99.90
20740;DHT22;10530;49.968;19.844;2023-09-19T18:08:31;17.30;99.90
20740;DHT22;10530;49.968;19.844;2023-09-19T18:13:33;17.00;99.90
20740;DHT22;10530;49.968;19.844;2023-09-19T18:18:36;16.80;99.90
20740;DHT22;10530;49.968;19.844;2023-09-19T18:23:39;16.60;99.90
20740;DHT22;10530;49.968;19.844;2023-09-19T18:28:42;16.40;99.90
20740;DHT22;10530;49.968;19.844;2023-09-19T18:33:46;16.20;99.90
20740;DHT22;10530;49.968;19.844;2023-09-19T18:38:50;16.20;99.90
20740;DHT22;10530;49.968;19.844;2023-09-19T18:43:54;16.10;99.90
20740;DHT22;10530;49.968;19.844;2023-09-19T18:48:56;16.00;99.90
20740;DHT22;10530;49.968;19.844;2023-09-19T18:53:59;16.00;99.90
20740;DHT22;10530;49.968;19.844;2023-09-19T18:59:14;15.90;99.90
20740;DHT22;10530;49.968;19.844;2023-09-19T19:04:18;15.90;99.90
20740;DHT22;10530;49.968;19.844;2023-09-19T19:09:21;15.90;99.90
20740;DHT22;10530;49.968;19.844;2023-09-19T19:14:24;15.90;99.90
20740;DHT22;10530;49.968;19.844;2023-09-19T19:19:26;16.10;99.90
20740;DHT22;10530;49.968;19.844;2023-09-19T19:24:29;16.20;99.90
20740;DHT22;10530;49.968;19.844;2023-09-19T19:29:32;16.30;99.90
20740;DHT22;10530;49.968;19.844;2023-09-19T19:34:35;16.40;99.90
20740;DHT22;10530;49.968;19.844;2023-09-19T19:39:39;16.60;99.90
20740;DHT22;10530;49.968;19.844;2023-09-19T19:44:41;16.60;99.90
20740;DHT22;10530;49.968;19.844;2023-09-19T19:49:45;16.60;99.90
20740;DHT22;10530;49.968;19.844;2023-09-19T19:54:49;16.70;99.90
20740;DHT22;10530;49.968;19.844;2023-09-19T19:59:55;16.80;99.90
20740;DHT22;10530;49.968;19.844;2023-09-19T20:05:00;16.90;99.90
20740;DHT22;10530;49.968;19.844;2023-09-19T20:10:07;16.90;99.90
20740;DHT22;10530;49.968;19.844;2023-09-19T20:15:10;16.90;99.90
20740;DHT22;10530;49.968;19.844;2023-09-19T20:20:13;16.90;99.90
20740;DHT22;10530;49.968;19.844;2023-09-19T20:25:18;16.90;99.90
20740;DHT22;10530;49.968;19.844;2023-09-19T20:30:23;16.80;99.90
20740;DHT22;10530;49.968;19.844;2023-09-19T20:35:26;16.70;99.90
20740;DHT22;10530;49.968;19.844;2023-09-19T20:40:29;16.60;99.90
20740;DHT22;10530;49.968;19.844;2023-09-19T20:45:34;16.40;99.90
20740;DHT22;10530;49.968;19.844;2023-09-19T20:50:42;16.30;99.90
20740;DHT22;10530;49.968;19.844;2023-09-19T20:55:45;16.10;99.90
20740;DHT22;10530;49.968;19.844;2023-09-19T21:00:48;16.10;99.90
20740;DHT22;10530;49.968;19.844;2023-09-19T21:06:02;15.90;99.90
20740;DHT22;10530;49.968;19.844;2023-09-19T21:11:16;15.80;99.90
20740;DHT22;10530;49.968;19.844;2023-09-19T21:16:19;15.70;99.90
20740;DHT22;10530;49.968;19.844;2023-09-19T21:21:23;15.60;99.90
20740;DHT22;10530;49.968;19.844;2023-09-19T21:26:26;15.60;99.90
20740;DHT22;10530;49.968;19.844;2023-09-19T21:31:29;15.40;99.90
20740;DHT22;10530;49.968;19.844;2023-09-19T21:36:32;15.30;99.90
20740;DHT22;10530;49.968;19.844;2023-09-19T21:41:37;15.30;99.90
20740;DHT22;10530;49.968;19.844;2023-09-19T21:46:40;15.30;99.90
20740;DHT22;10530;49.968;19.844;2023-09-19T21:51:43;15.20;99.90
20740;DHT22;10530;49.968;19.844;2023-09-19T21:56:45;15.10;99.90
20740;DHT22;10530;49.968;19.844;2023-09-19T22:01:50;15.00;99.90
20740;DHT22;10530;49.968;19.844;2023-09-19T22:06:53;15.00;99.90
20740;DHT22;10530;49.968;19.844;2023-09-19T22:11:56;15.00;99.90
20740;DHT22;10530;49.968;19.844;2023-09-19T22:17:01;14.90;99.90
20740;DHT22;10530;49.968;19.844;2023-09-19T22:22:04;15.00;99.90
20740;DHT22;10530;49.968;19.844;2023-09-19T22:27:11;14.90;99.90
20740;DHT22;10530;49.968;19.844;2023-09-19T22:32:14;14.80;99.90
20740;DHT22;10530;49.968;19.844;2023-09-19T22:37:17;14.70;99.90
20740;DHT22;10530;49.968;19.844;2023-09-19T22:42:20;14.80;99.90
20740;DHT22;10530;49.968;19.844;2023-09-19T22:47:25;14.70;99.90
20740;DHT22;10530;49.968;19.844;2023-09-19T22:52:29;14.70;99.90
20740;DHT22;10530;49.968;19.844;2023-09-19T22:57:32;14.90;99.90
20740;DHT22;10530;49.968;19.844;2023-09-19T23:02:38;14.80;99.90
20740;DHT22;10530;49.968;19.844;2023-09-19T23:07:44;14.70;99.90
20740;DHT22;10530;49.968;19.844;2023-09-19T23:12:56;14.60;99.90
20740;DHT22;10530;49.968;19.844;2023-09-19T23:18:00;14.60;99.90
20740;DHT22;10530;49.968;19.844;2023-09-19T23:23:02;14.40;99.90
20740;DHT22;10530;49.968;19.844;2023-09-19T23:28:07;14.40;99.90
20740;DHT22;10530;49.968;19.844;2023-09-19T23:33:10;14.40;99.90
20740;DHT22;10530;49.968;19.844;2023-09-19T23:38:15;14.30;99.90
20740;DHT22;10530;49.968;19.844;2023-09-19T23:43:18;14.30;99.90
20740;DHT22;10530;49.968;19.844;2023-09-19T23:48:21;14.40;99.90
20740;DHT22;10530;49.968;19.844;2023-09-19T23:53:26;14.30;99.90
20740;DHT22;10530;49.968;19.844;2023-09-19T23:58:31;14.30;99.90
